Terminal Aerodrome Forecast
Issued by NWS

Home | Current Version | Previous Version | Graphics & Text | Print | Product List | Glossary On
Versions: 1 2 3 4 5 6 7 8 9 10 11 12 13 14 15 16 17
000
FTUS43 KMPX 192000 AAA
TAFAXN
TAF AMD
KAXN 192017Z 1920/2018 31012G22KT 6SM -SN SCT018 BKN035
      TEMPO 1920/1922 1 1/2SM -SHSN BLSN BKN016 OVC040
     FM192300 31016G23KT P6SM BKN035
     FM200200 29011KT P6SM SCT035
     FM201400 30011G16KT P6SM SCT040=

USA.gov is the U.S. government's official web portal to all federal, state and local government web resources and services.